RYR363C LEMI-EGHH
Flight info
| Callsign | RYR363C |
|---|---|
| Flight time | 2h 5m |
| Altitude | 38000 |
| Route | ALT N851 MITOS N608 COMPI Y90 USKAR N863 GIROM DCT GONUP DCT MANAK DCT EPAPU UM184 EKRAS UT507 REVTU UY110 ORIST Y110 THRED |
| Aircraft | B738/M-SDE3FGILRWY/SB1 |
Departure
| Time | 2026-04-25 07:04 |
|---|---|
| Airport | Region of Murcia International Airport (LEMI) |
Arrival
| Time | 2026-04-25 09:09 |
|---|---|
| Airport | Bournemouth Airport (EGHH) |
| Time | Latitude | Longitude | Altitude | Speed | Heading |
|---|---|---|---|---|---|
| 2026-04-25 06:30 | 37.80354 | -1.13124 | 646 ft | 0 kts | 315° |
| 2026-04-25 06:50 | 37.80354 | -1.13123 | 646 ft | 0 kts | 315° |
| 2026-04-25 06:55 | 37.80344 | -1.13111 | 646 ft | 3 kts | 332° |
| 2026-04-25 06:55 | 37.80326 | -1.13106 | 647 ft | 3 kts | 351° |
| 2026-04-25 06:56 | 37.80314 | -1.13097 | 649 ft | 3 kts | 315° |
| 2026-04-25 06:56 | 37.80301 | -1.13078 | 648 ft | 3 kts | 298° |
| 2026-04-25 06:56 | 37.80296 | -1.13060 | 650 ft | 3 kts | 246° |
| 2026-04-25 06:56 | 37.80302 | -1.13049 | 649 ft | 2 kts | 226° |
| 2026-04-25 06:57 | 37.80314 | -1.13033 | 648 ft | 2 kts | 226° |
| 2026-04-25 06:57 | 37.80317 | -1.13030 | 648 ft | 0 kts | 226° |
| 2026-04-25 06:59 | 37.80316 | -1.13030 | 648 ft | 0 kts | 226° |
| 2026-04-25 06:59 | 37.80310 | -1.13038 | 648 ft | 3 kts | 226° |
| 2026-04-25 06:59 | 37.80290 | -1.13065 | 649 ft | 6 kts | 226° |
| 2026-04-25 07:00 | 37.80256 | -1.13109 | 646 ft | 8 kts | 226° |
| 2026-04-25 07:00 | 37.80216 | -1.13155 | 646 ft | 8 kts | 208° |
| 2026-04-25 07:00 | 37.80160 | -1.13137 | 646 ft | 10 kts | 137° |
| 2026-04-25 07:00 | 37.80096 | -1.13083 | 647 ft | 12 kts | 176° |
| 2026-04-25 07:01 | 37.80033 | -1.13142 | 647 ft | 12 kts | 225° |
| 2026-04-25 07:01 | 37.79974 | -1.13216 | 647 ft | 13 kts | 225° |
| 2026-04-25 07:01 | 37.79907 | -1.13305 | 650 ft | 15 kts | 227° |
| 2026-04-25 07:01 | 37.79825 | -1.13411 | 650 ft | 19 kts | 224° |
| 2026-04-25 07:02 | 37.79725 | -1.13536 | 649 ft | 21 kts | 225° |
| 2026-04-25 07:02 | 37.79624 | -1.13663 | 647 ft | 20 kts | 225° |
| 2026-04-25 07:02 | 37.79542 | -1.13766 | 646 ft | 10 kts | 221° |
| 2026-04-25 07:02 | 37.79478 | -1.13763 | 647 ft | 10 kts | 137° |
| 2026-04-25 07:03 | 37.79426 | -1.13703 | 645 ft | 10 kts | 136° |
| 2026-04-25 07:03 | 37.79423 | -1.13618 | 644 ft | 11 kts | 53° |
| 2026-04-25 07:03 | 37.79486 | -1.13536 | 643 ft | 16 kts | 45° |
| 2026-04-25 07:03 | 37.79671 | -1.13299 | 647 ft | 71 kts | 45° |
| 2026-04-25 07:04 | 37.80177 | -1.12651 | 644 ft | 137 kts | 45° |
| 2026-04-25 07:04 | 37.80955 | -1.11633 | 821 ft | 175 kts | 46° |
| 2026-04-25 07:04 | 37.81845 | -1.10510 | 1509 ft | 182 kts | 43° |
| 2026-04-25 07:04 | 37.82762 | -1.09451 | 2451 ft | 178 kts | 42° |
| 2026-04-25 07:05 | 37.83714 | -1.08330 | 2974 ft | 199 kts | 43° |
| 2026-04-25 07:05 | 37.84789 | -1.07058 | 3208 ft | 224 kts | 43° |
| 2026-04-25 07:05 | 37.85982 | -1.05645 | 3500 ft | 243 kts | 43° |
| 2026-04-25 07:05 | 37.87275 | -1.04111 | 3749 ft | 265 kts | 43° |
| 2026-04-25 07:06 | 37.88640 | -1.02490 | 4430 ft | 271 kts | 43° |
| 2026-04-25 07:06 | 37.89997 | -1.00879 | 5308 ft | 272 kts | 43° |
| 2026-04-25 07:06 | 37.91389 | -0.99226 | 6105 ft | 276 kts | 43° |
| 2026-04-25 07:06 | 37.92797 | -0.97553 | 6897 ft | 279 kts | 43° |
| 2026-04-25 07:07 | 37.94220 | -0.95860 | 7670 ft | 283 kts | 43° |
| 2026-04-25 07:07 | 37.95661 | -0.94145 | 8435 ft | 286 kts | 43° |
| 2026-04-25 07:07 | 37.97117 | -0.92412 | 9182 ft | 289 kts | 43° |
| 2026-04-25 07:07 | 37.98590 | -0.90656 | 9918 ft | 292 kts | 43° |
| 2026-04-25 07:08 | 38.00069 | -0.88893 | 10444 ft | 304 kts | 43° |
| 2026-04-25 07:08 | 38.01673 | -0.86979 | 10613 ft | 327 kts | 43° |
| 2026-04-25 07:08 | 38.03367 | -0.84957 | 11045 ft | 340 kts | 43° |
| 2026-04-25 07:08 | 38.05100 | -0.82885 | 11708 ft | 344 kts | 43° |
| 2026-04-25 07:09 | 38.06847 | -0.80797 | 12439 ft | 347 kts | 43° |
| 2026-04-25 07:09 | 38.08612 | -0.78686 | 13156 ft | 350 kts | 43° |
| 2026-04-25 07:09 | 38.10394 | -0.76554 | 13866 ft | 354 kts | 43° |
| 2026-04-25 07:09 | 38.12194 | -0.74399 | 14576 ft | 358 kts | 43° |
| 2026-04-25 07:10 | 38.13994 | -0.72255 | 15276 ft | 361 kts | 43° |
| 2026-04-25 07:10 | 38.15839 | -0.70064 | 15976 ft | 365 kts | 43° |
| 2026-04-25 07:10 | 38.17702 | -0.67850 | 16656 ft | 369 kts | 43° |
| 2026-04-25 07:10 | 38.19582 | -0.65613 | 17316 ft | 372 kts | 43° |
| 2026-04-25 07:11 | 38.21483 | -0.63349 | 17961 ft | 376 kts | 43° |
| 2026-04-25 07:11 | 38.23398 | -0.61065 | 18591 ft | 380 kts | 43° |
| 2026-04-25 07:11 | 38.25335 | -0.58754 | 19205 ft | 383 kts | 43° |
| 2026-04-25 07:11 | 38.27075 | -0.56176 | 19764 ft | 387 kts | 60° |
| 2026-04-25 07:12 | 38.28180 | -0.53100 | 20366 ft | 389 kts | 68° |
| 2026-04-25 07:12 | 38.30179 | -0.46628 | 21465 ft | 397 kts | 69° |
| 2026-04-25 07:12 | 38.31195 | -0.43345 | 21993 ft | 400 kts | 68° |
| 2026-04-25 07:13 | 38.32232 | -0.40046 | 22504 ft | 403 kts | 68° |
| 2026-04-25 07:13 | 38.33286 | -0.36723 | 23006 ft | 406 kts | 68° |
| 2026-04-25 07:13 | 38.34354 | -0.33373 | 23495 ft | 409 kts | 68° |
| 2026-04-25 07:13 | 38.35428 | -0.30003 | 23970 ft | 412 kts | 68° |
| 2026-04-25 07:14 | 38.36515 | -0.26610 | 24433 ft | 415 kts | 68° |
| 2026-04-25 07:14 | 38.37643 | -0.23206 | 24881 ft | 418 kts | 67° |
| 2026-04-25 07:14 | 38.38774 | -0.19834 | 25311 ft | 421 kts | 67° |
| 2026-04-25 07:14 | 38.39929 | -0.16393 | 25735 ft | 424 kts | 67° |
| 2026-04-25 07:15 | 38.41087 | -0.12919 | 26143 ft | 427 kts | 67° |
| 2026-04-25 07:15 | 38.42245 | -0.09433 | 26546 ft | 429 kts | 67° |
| 2026-04-25 07:15 | 38.43667 | -0.06077 | 26885 ft | 433 kts | 51° |
| 2026-04-25 07:15 | 38.45853 | -0.03456 | 27244 ft | 435 kts | 33° |
| 2026-04-25 07:16 | 38.48576 | -0.01779 | 27634 ft | 436 kts | 17° |
| 2026-04-25 07:16 | 38.51565 | -0.01160 | 27977 ft | 438 kts | 1° |
| 2026-04-25 07:16 | 38.54573 | -0.01100 | 28324 ft | 440 kts | 360° |
| 2026-04-25 07:16 | 38.57649 | -0.01125 | 28633 ft | 443 kts | 359° |
| 2026-04-25 07:17 | 38.60737 | -0.01172 | 28944 ft | 446 kts | 359° |
| 2026-04-25 07:17 | 38.63844 | -0.01208 | 29269 ft | 448 kts | 359° |
| 2026-04-25 07:17 | 38.66970 | -0.01225 | 29592 ft | 450 kts | 360° |
| 2026-04-25 07:17 | 38.70100 | -0.01225 | 29898 ft | 452 kts | 360° |
| 2026-04-25 07:18 | 38.73141 | -0.01213 | 30177 ft | 454 kts | 360° |
| 2026-04-25 07:18 | 38.76303 | -0.01193 | 30460 ft | 456 kts | 0° |
| 2026-04-25 07:18 | 38.79487 | -0.01171 | 30735 ft | 458 kts | 0° |
| 2026-04-25 07:18 | 38.82677 | -0.01148 | 31000 ft | 460 kts | 0° |
| 2026-04-25 07:19 | 38.85840 | -0.01126 | 31266 ft | 461 kts | 0° |
| 2026-04-25 07:19 | 38.89047 | -0.01104 | 31610 ft | 461 kts | 0° |
| 2026-04-25 07:19 | 38.92249 | -0.01082 | 32002 ft | 459 kts | 0° |
| 2026-04-25 07:19 | 38.95436 | -0.01061 | 32372 ft | 457 kts | 0° |
| 2026-04-25 07:20 | 38.98617 | -0.01040 | 32682 ft | 457 kts | 0° |
| 2026-04-25 07:20 | 39.01796 | -0.01020 | 32977 ft | 457 kts | 0° |
| 2026-04-25 07:20 | 39.04976 | -0.00999 | 33296 ft | 456 kts | 0° |
| 2026-04-25 07:20 | 39.08148 | -0.00978 | 33621 ft | 455 kts | 0° |
| 2026-04-25 07:21 | 39.11319 | -0.00957 | 33924 ft | 455 kts | 0° |
| 2026-04-25 07:21 | 39.14480 | -0.00937 | 34209 ft | 455 kts | 0° |
| 2026-04-25 07:21 | 39.17644 | -0.00916 | 34491 ft | 454 kts | 0° |
| 2026-04-25 07:21 | 39.20758 | -0.00895 | 34778 ft | 453 kts | 0° |
| 2026-04-25 07:22 | 39.23909 | -0.00874 | 35052 ft | 453 kts | 0° |
| 2026-04-25 07:22 | 39.27055 | -0.00854 | 35312 ft | 452 kts | 0° |
| 2026-04-25 07:22 | 39.30202 | -0.00833 | 35571 ft | 452 kts | 0° |
| 2026-04-25 07:22 | 39.33343 | -0.00797 | 35825 ft | 451 kts | 2° |
| 2026-04-25 07:23 | 39.36462 | -0.00373 | 36052 ft | 451 kts | 11° |
| 2026-04-25 07:23 | 39.39504 | 0.00634 | 36285 ft | 451 kts | 15° |
| 2026-04-25 07:23 | 39.42475 | 0.01756 | 36495 ft | 451 kts | 16° |
| 2026-04-25 07:23 | 39.45478 | 0.02920 | 36686 ft | 451 kts | 17° |
| 2026-04-25 07:24 | 39.48492 | 0.04085 | 36888 ft | 451 kts | 16° |
| 2026-04-25 07:24 | 39.51504 | 0.05233 | 37107 ft | 451 kts | 16° |
| 2026-04-25 07:24 | 39.54517 | 0.06367 | 37290 ft | 451 kts | 16° |
| 2026-04-25 07:24 | 39.57536 | 0.07493 | 37474 ft | 451 kts | 16° |
| 2026-04-25 07:25 | 39.60556 | 0.08614 | 37661 ft | 451 kts | 15° |
| 2026-04-25 07:25 | 39.63574 | 0.09733 | 37845 ft | 451 kts | 15° |
| 2026-04-25 07:25 | 39.66552 | 0.10838 | 37986 ft | 452 kts | 15° |
| 2026-04-25 07:25 | 39.69584 | 0.11965 | 37992 ft | 455 kts | 16° |
| 2026-04-25 07:26 | 39.75660 | 0.14227 | 37996 ft | 453 kts | 16° |
| 2026-04-25 07:26 | 39.81685 | 0.16475 | 37996 ft | 449 kts | 16° |
| 2026-04-25 07:27 | 39.87677 | 0.18715 | 37998 ft | 447 kts | 16° |
| 2026-04-25 07:27 | 39.93608 | 0.20937 | 38001 ft | 445 kts | 16° |
| 2026-04-25 07:28 | 39.99553 | 0.23168 | 38003 ft | 445 kts | 16° |
| 2026-04-25 07:28 | 40.05507 | 0.25402 | 38004 ft | 445 kts | 16° |
| 2026-04-25 07:29 | 40.11472 | 0.27643 | 38005 ft | 447 kts | 16° |
| 2026-04-25 07:29 | 40.17462 | 0.29897 | 38005 ft | 449 kts | 16° |
| 2026-04-25 07:30 | 40.23440 | 0.32152 | 38005 ft | 451 kts | 16° |
| 2026-04-25 07:30 | 40.29483 | 0.34436 | 38004 ft | 453 kts | 16° |
| 2026-04-25 07:31 | 40.35546 | 0.36733 | 38003 ft | 454 kts | 16° |
| 2026-04-25 07:31 | 40.41627 | 0.39047 | 38001 ft | 455 kts | 16° |
| 2026-04-25 07:32 | 40.47670 | 0.41352 | 38001 ft | 456 kts | 16° |
| 2026-04-25 07:32 | 40.53765 | 0.43680 | 38000 ft | 455 kts | 16° |
| 2026-04-25 07:33 | 40.59842 | 0.46006 | 38000 ft | 454 kts | 16° |
| 2026-04-25 07:33 | 40.65904 | 0.48331 | 38001 ft | 453 kts | 16° |
| 2026-04-25 07:34 | 40.71948 | 0.50653 | 37998 ft | 452 kts | 16° |
| 2026-04-25 07:34 | 40.77934 | 0.52957 | 38000 ft | 451 kts | 16° |
| 2026-04-25 07:35 | 40.83945 | 0.55275 | 38001 ft | 450 kts | 16° |
| 2026-04-25 07:35 | 40.89948 | 0.57594 | 38001 ft | 449 kts | 16° |
| 2026-04-25 07:36 | 40.95940 | 0.59914 | 38001 ft | 449 kts | 16° |
| 2026-04-25 07:36 | 41.00913 | 0.61843 | 38002 ft | 448 kts | 16° |
| 2026-04-25 07:37 | 41.05974 | 0.63809 | 38002 ft | 448 kts | 16° |
| 2026-04-25 07:37 | 41.10952 | 0.65745 | 38003 ft | 449 kts | 16° |
| 2026-04-25 07:38 | 41.17887 | 0.68445 | 38002 ft | 449 kts | 16° |
| 2026-04-25 07:38 | 41.23856 | 0.70769 | 38001 ft | 450 kts | 16° |
| 2026-04-25 07:39 | 41.29875 | 0.73117 | 38002 ft | 451 kts | 16° |
| 2026-04-25 07:39 | 41.35895 | 0.75471 | 38001 ft | 451 kts | 16° |
| 2026-04-25 07:40 | 41.41928 | 0.77835 | 38001 ft | 452 kts | 16° |
| 2026-04-25 07:40 | 41.46944 | 0.79804 | 38002 ft | 452 kts | 16° |
| 2026-04-25 07:41 | 41.53962 | 0.82564 | 38000 ft | 453 kts | 16° |
| 2026-04-25 07:41 | 41.59998 | 0.84943 | 38001 ft | 452 kts | 16° |
| 2026-04-25 07:42 | 41.65016 | 0.86925 | 38001 ft | 452 kts | 16° |
| 2026-04-25 07:42 | 41.71047 | 0.89310 | 38001 ft | 452 kts | 16° |
| 2026-04-25 07:43 | 41.78062 | 0.92091 | 38002 ft | 452 kts | 16° |
| 2026-04-25 07:43 | 41.83072 | 0.94081 | 38001 ft | 452 kts | 16° |
| 2026-04-25 07:44 | 41.90047 | 0.96857 | 38001 ft | 451 kts | 16° |
| 2026-04-25 07:44 | 41.95048 | 0.98851 | 38002 ft | 451 kts | 16° |
| 2026-04-25 07:45 | 42.02037 | 1.01644 | 38002 ft | 451 kts | 16° |
| 2026-04-25 07:45 | 42.08045 | 1.04049 | 38001 ft | 451 kts | 16° |
| 2026-04-25 07:46 | 42.14108 | 1.06154 | 37991 ft | 450 kts | 7° |
| 2026-04-25 07:46 | 42.19292 | 1.06248 | 38008 ft | 449 kts | 355° |
| 2026-04-25 07:47 | 42.25512 | 1.05463 | 37996 ft | 449 kts | 354° |
| 2026-04-25 07:47 | 42.31732 | 1.04700 | 38000 ft | 449 kts | 355° |
| 2026-04-25 07:48 | 42.37926 | 1.04012 | 37999 ft | 449 kts | 355° |
| 2026-04-25 07:48 | 42.44161 | 1.03328 | 38000 ft | 450 kts | 355° |
| 2026-04-25 07:49 | 42.50398 | 1.02650 | 38001 ft | 450 kts | 355° |
| 2026-04-25 07:49 | 42.57648 | 1.01866 | 38002 ft | 450 kts | 355° |
| 2026-04-25 07:50 | 42.62880 | 1.01297 | 38001 ft | 450 kts | 355° |
| 2026-04-25 07:50 | 42.69080 | 1.00621 | 38001 ft | 450 kts | 355° |
| 2026-04-25 07:51 | 42.75327 | 0.99938 | 38002 ft | 450 kts | 355° |
| 2026-04-25 07:51 | 42.81489 | 0.98506 | 38012 ft | 449 kts | 346° |
| 2026-04-25 07:52 | 42.87543 | 0.96354 | 38005 ft | 450 kts | 345° |
| 2026-04-25 07:52 | 42.93596 | 0.94189 | 37999 ft | 450 kts | 345° |
| 2026-04-25 07:53 | 42.99624 | 0.92083 | 38000 ft | 450 kts | 345° |
| 2026-04-25 07:53 | 43.05692 | 0.89984 | 38002 ft | 450 kts | 345° |
| 2026-04-25 07:54 | 43.11767 | 0.87882 | 38000 ft | 450 kts | 345° |
| 2026-04-25 07:54 | 43.17837 | 0.85775 | 38001 ft | 450 kts | 345° |
| 2026-04-25 07:55 | 43.23864 | 0.83677 | 38003 ft | 450 kts | 345° |
| 2026-04-25 07:55 | 43.29935 | 0.81560 | 38001 ft | 450 kts | 345° |
| 2026-04-25 07:56 | 43.36004 | 0.79439 | 38001 ft | 450 kts | 345° |
| 2026-04-25 07:56 | 43.42066 | 0.77316 | 38002 ft | 450 kts | 345° |
| 2026-04-25 07:57 | 43.48028 | 0.74946 | 37996 ft | 449 kts | 338° |
| 2026-04-25 07:57 | 43.53779 | 0.71592 | 37997 ft | 449 kts | 336° |
| 2026-04-25 07:58 | 43.59489 | 0.68107 | 38003 ft | 449 kts | 336° |
| 2026-04-25 07:58 | 43.65213 | 0.64662 | 38002 ft | 449 kts | 336° |
| 2026-04-25 07:59 | 43.70909 | 0.61276 | 38001 ft | 449 kts | 336° |
| 2026-04-25 07:59 | 43.76650 | 0.57873 | 38000 ft | 449 kts | 336° |
| 2026-04-25 08:00 | 43.82390 | 0.54467 | 38002 ft | 449 kts | 336° |
| 2026-04-25 08:00 | 43.88128 | 0.51052 | 38002 ft | 449 kts | 336° |
| 2026-04-25 08:01 | 43.93830 | 0.47651 | 37999 ft | 449 kts | 336° |
| 2026-04-25 08:01 | 43.99570 | 0.44220 | 38003 ft | 449 kts | 336° |
| 2026-04-25 08:02 | 44.05304 | 0.40785 | 38000 ft | 449 kts | 336° |
| 2026-04-25 08:02 | 44.11039 | 0.37342 | 38002 ft | 449 kts | 336° |
| 2026-04-25 08:03 | 44.16780 | 0.33889 | 38001 ft | 449 kts | 336° |
| 2026-04-25 08:03 | 44.22473 | 0.30457 | 38001 ft | 449 kts | 336° |
| 2026-04-25 08:04 | 44.28211 | 0.26991 | 38002 ft | 449 kts | 336° |
| 2026-04-25 08:04 | 44.33938 | 0.23523 | 38001 ft | 449 kts | 336° |
| 2026-04-25 08:05 | 44.39676 | 0.20042 | 38000 ft | 449 kts | 336° |
| 2026-04-25 08:05 | 44.45367 | 0.16582 | 38003 ft | 449 kts | 336° |
| 2026-04-25 08:06 | 44.51094 | 0.13092 | 38000 ft | 449 kts | 336° |
| 2026-04-25 08:06 | 44.56819 | 0.09597 | 38002 ft | 449 kts | 336° |
| 2026-04-25 08:07 | 44.62543 | 0.06094 | 38000 ft | 449 kts | 336° |
| 2026-04-25 08:07 | 44.68264 | 0.02586 | 38000 ft | 449 kts | 336° |
| 2026-04-25 08:08 | 44.73948 | -0.00908 | 38002 ft | 449 kts | 336° |
| 2026-04-25 08:08 | 44.79665 | -0.04429 | 38001 ft | 449 kts | 336° |
| 2026-04-25 08:09 | 44.85381 | -0.07957 | 38002 ft | 449 kts | 336° |
| 2026-04-25 08:09 | 44.91101 | -0.11495 | 38000 ft | 449 kts | 336° |
| 2026-04-25 08:10 | 44.96774 | -0.15013 | 38002 ft | 449 kts | 336° |
| 2026-04-25 08:10 | 45.02487 | -0.18562 | 38000 ft | 449 kts | 336° |
| 2026-04-25 08:11 | 45.08200 | -0.22119 | 38001 ft | 449 kts | 336° |
| 2026-04-25 08:11 | 45.13551 | -0.25458 | 38001 ft | 449 kts | 336° |
| 2026-04-25 08:12 | 45.19220 | -0.29003 | 38002 ft | 448 kts | 336° |
| 2026-04-25 08:12 | 45.24929 | -0.32581 | 38003 ft | 449 kts | 336° |
| 2026-04-25 08:13 | 45.30641 | -0.36168 | 38001 ft | 449 kts | 336° |
| 2026-04-25 08:14 | 45.39166 | -0.41537 | 38002 ft | 449 kts | 336° |
| 2026-04-25 08:14 | 45.44873 | -0.45142 | 38001 ft | 449 kts | 335° |
| 2026-04-25 08:15 | 45.50579 | -0.48753 | 38001 ft | 449 kts | 335° |
| 2026-04-25 08:15 | 45.56288 | -0.52374 | 38002 ft | 449 kts | 335° |
| 2026-04-25 08:16 | 45.61989 | -0.55999 | 38001 ft | 449 kts | 335° |
| 2026-04-25 08:16 | 45.67654 | -0.59609 | 38000 ft | 449 kts | 335° |
| 2026-04-25 08:17 | 45.73347 | -0.63245 | 38001 ft | 449 kts | 335° |
| 2026-04-25 08:17 | 45.79051 | -0.66895 | 38001 ft | 448 kts | 335° |
| 2026-04-25 08:18 | 45.84744 | -0.70548 | 38001 ft | 448 kts | 335° |
| 2026-04-25 08:18 | 45.90396 | -0.74182 | 38001 ft | 448 kts | 335° |
| 2026-04-25 08:19 | 45.96093 | -0.77853 | 38002 ft | 448 kts | 335° |
| 2026-04-25 08:19 | 46.01415 | -0.81290 | 38001 ft | 448 kts | 335° |
| 2026-04-25 08:20 | 46.07099 | -0.84969 | 38002 ft | 448 kts | 335° |
| 2026-04-25 08:20 | 46.12750 | -0.88636 | 38001 ft | 448 kts | 335° |
| 2026-04-25 08:21 | 46.18437 | -0.92333 | 38001 ft | 448 kts | 335° |
| 2026-04-25 08:21 | 46.24311 | -0.95311 | 38010 ft | 448 kts | 347° |
| 2026-04-25 08:22 | 46.30418 | -0.97141 | 38004 ft | 448 kts | 348° |
| 2026-04-25 08:22 | 46.36494 | -0.98898 | 38001 ft | 449 kts | 348° |
| 2026-04-25 08:23 | 46.42608 | -1.00729 | 38002 ft | 449 kts | 348° |
| 2026-04-25 08:23 | 46.48716 | -1.02601 | 38002 ft | 449 kts | 348° |
| 2026-04-25 08:24 | 46.54826 | -1.04489 | 38000 ft | 449 kts | 347° |
| 2026-04-25 08:24 | 46.60904 | -1.06372 | 38001 ft | 449 kts | 347° |
| 2026-04-25 08:25 | 46.66973 | -1.08254 | 38001 ft | 449 kts | 347° |
| 2026-04-25 08:25 | 46.73087 | -1.10155 | 38001 ft | 449 kts | 347° |
| 2026-04-25 08:26 | 46.79204 | -1.12060 | 38000 ft | 449 kts | 347° |
| 2026-04-25 08:26 | 46.85272 | -1.13954 | 38002 ft | 449 kts | 347° |
| 2026-04-25 08:27 | 46.91379 | -1.15865 | 38000 ft | 449 kts | 347° |
| 2026-04-25 08:27 | 46.97495 | -1.17784 | 38002 ft | 449 kts | 347° |
| 2026-04-25 08:28 | 47.03603 | -1.19704 | 38002 ft | 449 kts | 347° |
| 2026-04-25 08:28 | 47.09710 | -1.21629 | 38001 ft | 449 kts | 347° |
| 2026-04-25 08:29 | 47.15771 | -1.23543 | 38002 ft | 449 kts | 347° |
| 2026-04-25 08:29 | 47.21879 | -1.25475 | 38361 ft | 451 kts | 345° |
| 2026-04-25 08:29 | 47.24943 | -1.26448 | 38241 ft | 450 kts | 345° |
| 2026-04-25 08:30 | 47.27993 | -1.27416 | 38179 ft | 447 kts | 345° |
| 2026-04-25 08:30 | 47.34039 | -1.29339 | 38136 ft | 442 kts | 345° |
| 2026-04-25 08:31 | 47.39990 | -1.31237 | 38144 ft | 442 kts | 345° |
| 2026-04-25 08:31 | 47.46045 | -1.33176 | 38151 ft | 449 kts | 345° |
| 2026-04-25 08:32 | 47.52174 | -1.35139 | 38150 ft | 452 kts | 345° |
| 2026-04-25 08:32 | 47.58339 | -1.37118 | 38148 ft | 454 kts | 345° |
| 2026-04-25 08:33 | 47.64517 | -1.39106 | 38149 ft | 454 kts | 345° |
| 2026-04-25 08:33 | 47.70651 | -1.41061 | 38144 ft | 454 kts | 348° |
| 2026-04-25 08:34 | 47.76950 | -1.41812 | 38146 ft | 454 kts | 355° |
| 2026-04-25 08:34 | 47.83247 | -1.42170 | 38152 ft | 452 kts | 355° |
| 2026-04-25 08:35 | 47.89520 | -1.42594 | 38153 ft | 450 kts | 355° |
| 2026-04-25 08:35 | 47.95843 | -1.43075 | 38153 ft | 448 kts | 355° |
| 2026-04-25 08:36 | 48.02058 | -1.43551 | 38158 ft | 447 kts | 355° |
| 2026-04-25 08:36 | 48.08262 | -1.44005 | 38151 ft | 446 kts | 355° |
| 2026-04-25 08:37 | 48.14410 | -1.44438 | 38163 ft | 445 kts | 355° |
| 2026-04-25 08:37 | 48.20605 | -1.44876 | 38157 ft | 446 kts | 355° |
| 2026-04-25 08:38 | 48.26806 | -1.45320 | 38162 ft | 447 kts | 355° |
| 2026-04-25 08:38 | 48.33040 | -1.45768 | 37742 ft | 454 kts | 355° |
| 2026-04-25 08:38 | 48.36178 | -1.45994 | 37405 ft | 448 kts | 355° |
| 2026-04-25 08:39 | 48.39242 | -1.46213 | 36971 ft | 445 kts | 355° |
| 2026-04-25 08:39 | 48.42314 | -1.46433 | 36584 ft | 440 kts | 355° |
| 2026-04-25 08:39 | 48.45361 | -1.46652 | 36198 ft | 436 kts | 355° |
| 2026-04-25 08:39 | 48.48380 | -1.46869 | 35809 ft | 433 kts | 355° |
| 2026-04-25 08:40 | 48.51375 | -1.47086 | 35415 ft | 430 kts | 354° |
| 2026-04-25 08:40 | 48.54353 | -1.47302 | 35031 ft | 427 kts | 354° |
| 2026-04-25 08:40 | 48.57308 | -1.47516 | 34647 ft | 424 kts | 354° |
| 2026-04-25 08:40 | 48.60249 | -1.47730 | 34260 ft | 422 kts | 354° |
| 2026-04-25 08:41 | 48.63136 | -1.47941 | 33839 ft | 420 kts | 354° |
| 2026-04-25 08:41 | 48.66043 | -1.48152 | 33420 ft | 417 kts | 354° |
| 2026-04-25 08:41 | 48.68930 | -1.48363 | 33026 ft | 414 kts | 354° |
| 2026-04-25 08:41 | 48.71800 | -1.48572 | 32640 ft | 411 kts | 354° |
| 2026-04-25 08:42 | 48.74649 | -1.48780 | 32266 ft | 409 kts | 354° |
| 2026-04-25 08:42 | 48.77480 | -1.48988 | 31886 ft | 406 kts | 354° |
| 2026-04-25 08:42 | 48.80295 | -1.49194 | 31522 ft | 404 kts | 354° |
| 2026-04-25 08:42 | 48.83094 | -1.49399 | 31156 ft | 402 kts | 354° |
| 2026-04-25 08:43 | 48.85877 | -1.49603 | 30798 ft | 400 kts | 354° |
| 2026-04-25 08:43 | 48.88612 | -1.49805 | 30444 ft | 398 kts | 354° |
| 2026-04-25 08:43 | 48.91354 | -1.50220 | 29955 ft | 396 kts | 347° |
| 2026-04-25 08:43 | 48.94061 | -1.51022 | 29453 ft | 395 kts | 345° |
| 2026-04-25 08:44 | 48.96734 | -1.51916 | 29039 ft | 392 kts | 344° |
| 2026-04-25 08:44 | 48.99381 | -1.52825 | 28631 ft | 389 kts | 344° |
| 2026-04-25 08:44 | 49.02011 | -1.53720 | 28259 ft | 386 kts | 345° |
| 2026-04-25 08:44 | 49.04622 | -1.54595 | 27892 ft | 383 kts | 345° |
| 2026-04-25 08:45 | 49.07185 | -1.55441 | 27523 ft | 380 kts | 345° |
| 2026-04-25 08:45 | 49.09759 | -1.56282 | 27159 ft | 377 kts | 345° |
| 2026-04-25 08:45 | 49.12319 | -1.57115 | 26793 ft | 375 kts | 345° |
| 2026-04-25 08:45 | 49.14860 | -1.57939 | 26444 ft | 372 kts | 345° |
| 2026-04-25 08:46 | 49.17383 | -1.58756 | 26091 ft | 370 kts | 346° |
| 2026-04-25 08:46 | 49.19894 | -1.59571 | 25734 ft | 367 kts | 346° |
| 2026-04-25 08:46 | 49.22387 | -1.60380 | 25383 ft | 365 kts | 346° |
| 2026-04-25 08:46 | 49.24867 | -1.61187 | 25039 ft | 363 kts | 346° |
| 2026-04-25 08:47 | 49.27334 | -1.61989 | 24686 ft | 362 kts | 346° |
| 2026-04-25 08:47 | 49.29790 | -1.62789 | 24335 ft | 360 kts | 346° |
| 2026-04-25 08:47 | 49.32204 | -1.63576 | 23988 ft | 359 kts | 346° |
| 2026-04-25 08:47 | 49.34637 | -1.64371 | 23624 ft | 357 kts | 346° |
| 2026-04-25 08:48 | 49.37064 | -1.65164 | 23221 ft | 356 kts | 346° |
| 2026-04-25 08:48 | 49.39476 | -1.65952 | 22847 ft | 353 kts | 346° |
| 2026-04-25 08:48 | 49.41873 | -1.66737 | 22485 ft | 351 kts | 346° |
| 2026-04-25 08:48 | 49.44251 | -1.67515 | 22138 ft | 348 kts | 346° |
| 2026-04-25 08:49 | 49.46616 | -1.68291 | 21799 ft | 346 kts | 346° |
| 2026-04-25 08:49 | 49.48959 | -1.69061 | 21457 ft | 344 kts | 346° |
| 2026-04-25 08:49 | 49.51291 | -1.69829 | 21113 ft | 342 kts | 345° |
| 2026-04-25 08:49 | 49.53574 | -1.70580 | 20784 ft | 340 kts | 346° |
| 2026-04-25 08:50 | 49.55881 | -1.71339 | 20441 ft | 338 kts | 345° |
| 2026-04-25 08:50 | 49.58176 | -1.72095 | 20121 ft | 336 kts | 345° |
| 2026-04-25 08:50 | 49.60458 | -1.72838 | 19824 ft | 333 kts | 346° |
| 2026-04-25 08:50 | 49.62712 | -1.73515 | 19596 ft | 329 kts | 347° |
| 2026-04-25 08:51 | 49.64951 | -1.74166 | 19283 ft | 327 kts | 347° |
| 2026-04-25 08:51 | 49.67185 | -1.74812 | 18973 ft | 326 kts | 347° |
| 2026-04-25 08:51 | 49.69410 | -1.75458 | 18656 ft | 325 kts | 347° |
| 2026-04-25 08:51 | 49.71598 | -1.76096 | 18315 ft | 324 kts | 347° |
| 2026-04-25 08:52 | 49.73803 | -1.76743 | 17950 ft | 322 kts | 347° |
| 2026-04-25 08:52 | 49.76000 | -1.77388 | 17601 ft | 320 kts | 347° |
| 2026-04-25 08:52 | 49.78181 | -1.78031 | 17270 ft | 318 kts | 347° |
| 2026-04-25 08:52 | 49.80348 | -1.78670 | 16939 ft | 316 kts | 347° |
| 2026-04-25 08:53 | 49.82502 | -1.79306 | 16618 ft | 314 kts | 347° |
| 2026-04-25 08:53 | 49.84644 | -1.79939 | 16295 ft | 312 kts | 347° |
| 2026-04-25 08:53 | 49.86774 | -1.80570 | 15974 ft | 311 kts | 347° |
| 2026-04-25 08:53 | 49.88861 | -1.81189 | 15666 ft | 309 kts | 347° |
| 2026-04-25 08:54 | 49.90969 | -1.81815 | 15350 ft | 308 kts | 347° |
| 2026-04-25 08:54 | 49.93013 | -1.82421 | 15046 ft | 306 kts | 347° |
| 2026-04-25 08:54 | 49.95104 | -1.83042 | 14731 ft | 305 kts | 348° |
| 2026-04-25 08:54 | 49.97188 | -1.83662 | 14418 ft | 304 kts | 348° |
| 2026-04-25 08:55 | 49.99264 | -1.84278 | 14103 ft | 304 kts | 349° |
| 2026-04-25 08:55 | 50.01370 | -1.84467 | 13753 ft | 304 kts | 3° |
| 2026-04-25 08:55 | 50.03467 | -1.84148 | 13445 ft | 302 kts | 5° |
| 2026-04-25 08:55 | 50.05556 | -1.83799 | 13114 ft | 301 kts | 5° |
| 2026-04-25 08:56 | 50.07628 | -1.83477 | 12798 ft | 299 kts | 5° |
| 2026-04-25 08:56 | 50.09671 | -1.83183 | 12492 ft | 297 kts | 4° |
| 2026-04-25 08:56 | 50.11725 | -1.82898 | 12184 ft | 296 kts | 4° |
| 2026-04-25 08:56 | 50.13765 | -1.82610 | 11880 ft | 294 kts | 5° |
| 2026-04-25 08:57 | 50.15766 | -1.81992 | 11587 ft | 292 kts | 14° |
| 2026-04-25 08:57 | 50.17717 | -1.81116 | 11291 ft | 291 kts | 16° |
| 2026-04-25 08:57 | 50.19647 | -1.80193 | 10994 ft | 289 kts | 16° |
| 2026-04-25 08:57 | 50.21566 | -1.79279 | 10698 ft | 288 kts | 15° |
| 2026-04-25 08:58 | 50.23482 | -1.78380 | 10401 ft | 287 kts | 15° |
| 2026-04-25 08:58 | 50.25371 | -1.77507 | 10260 ft | 279 kts | 15° |
| 2026-04-25 08:58 | 50.27199 | -1.76670 | 9991 ft | 278 kts | 14° |
| 2026-04-25 08:58 | 50.29046 | -1.75831 | 9688 ft | 276 kts | 14° |
| 2026-04-25 08:59 | 50.30887 | -1.74998 | 9399 ft | 274 kts | 15° |
| 2026-04-25 08:59 | 50.32722 | -1.74245 | 9099 ft | 272 kts | 5° |
| 2026-04-25 08:59 | 50.34569 | -1.74536 | 8722 ft | 266 kts | 339° |
| 2026-04-25 08:59 | 50.36250 | -1.75746 | 8218 ft | 266 kts | 332° |
| 2026-04-25 09:00 | 50.37769 | -1.77016 | 7746 ft | 267 kts | 331° |
| 2026-04-25 09:00 | 50.39399 | -1.78413 | 7286 ft | 267 kts | 330° |
| 2026-04-25 09:00 | 50.41015 | -1.79813 | 6847 ft | 265 kts | 330° |
| 2026-04-25 09:00 | 50.42600 | -1.81198 | 6423 ft | 264 kts | 330° |
| 2026-04-25 09:01 | 50.44199 | -1.82602 | 5951 ft | 264 kts | 330° |
| 2026-04-25 09:01 | 50.45814 | -1.84028 | 5552 ft | 267 kts | 330° |
| 2026-04-25 09:01 | 50.47431 | -1.85460 | 5243 ft | 267 kts | 330° |
| 2026-04-25 09:01 | 50.49044 | -1.86894 | 4949 ft | 266 kts | 330° |
| 2026-04-25 09:02 | 50.50651 | -1.88325 | 4656 ft | 265 kts | 330° |
| 2026-04-25 09:02 | 50.52247 | -1.89749 | 4357 ft | 263 kts | 330° |
| 2026-04-25 09:02 | 50.53831 | -1.91168 | 4075 ft | 261 kts | 330° |
| 2026-04-25 09:02 | 50.55402 | -1.92580 | 3812 ft | 259 kts | 330° |
| 2026-04-25 09:03 | 50.56940 | -1.93966 | 3551 ft | 257 kts | 330° |
| 2026-04-25 09:03 | 50.58481 | -1.95360 | 3340 ft | 253 kts | 330° |
| 2026-04-25 09:03 | 50.59983 | -1.96721 | 3224 ft | 245 kts | 330° |
| 2026-04-25 09:03 | 50.61437 | -1.98042 | 3133 ft | 238 kts | 330° |
| 2026-04-25 09:04 | 50.62846 | -1.99325 | 3024 ft | 231 kts | 330° |
| 2026-04-25 09:04 | 50.64213 | -2.00572 | 2923 ft | 223 kts | 330° |
| 2026-04-25 09:04 | 50.65540 | -2.01752 | 2850 ft | 216 kts | 338° |
| 2026-04-25 09:04 | 50.66974 | -2.02125 | 2687 ft | 210 kts | 4° |
| 2026-04-25 09:05 | 50.68438 | -2.02010 | 2523 ft | 212 kts | 3° |
| 2026-04-25 09:05 | 50.69902 | -2.01950 | 2311 ft | 209 kts | 2° |
| 2026-04-25 09:05 | 50.71341 | -2.01903 | 2067 ft | 205 kts | 2° |
| 2026-04-25 09:05 | 50.72749 | -2.01852 | 1860 ft | 200 kts | 3° |
| 2026-04-25 09:06 | 50.74130 | -2.01785 | 1621 ft | 196 kts | 6° |
| 2026-04-25 09:06 | 50.75284 | -2.01016 | 1502 ft | 171 kts | 52° |
| 2026-04-25 09:06 | 50.75615 | -1.99330 | 1524 ft | 162 kts | 89° |
| 2026-04-25 09:06 | 50.75829 | -1.97579 | 1508 ft | 163 kts | 70° |
| 2026-04-25 09:07 | 50.76116 | -1.95879 | 1445 ft | 161 kts | 78° |
| 2026-04-25 09:07 | 50.76368 | -1.94174 | 1266 ft | 155 kts | 76° |
| 2026-04-25 09:07 | 50.76623 | -1.92585 | 1094 ft | 140 kts | 76° |
| 2026-04-25 09:07 | 50.76862 | -1.91123 | 891 ft | 140 kts | 75° |
| 2026-04-25 09:08 | 50.77108 | -1.89656 | 664 ft | 138 kts | 74° |
| 2026-04-25 09:08 | 50.77358 | -1.88164 | 419 ft | 140 kts | 75° |
| 2026-04-25 09:08 | 50.77437 | -1.87686 | 368 ft | 137 kts | 75° |
| 2026-04-25 09:08 | 50.77536 | -1.87095 | 302 ft | 134 kts | 75° |
| 2026-04-25 09:09 | 50.77763 | -1.85728 | 136 ft | 128 kts | 74° |
| 2026-04-25 09:09 | 50.77989 | -1.84371 | 43 ft | 123 kts | 75° |
| 2026-04-25 09:09 | 50.78164 | -1.83310 | 44 ft | 70 kts | 76° |
| 2026-04-25 09:09 | 50.78183 | -1.83049 | 40 ft | 10 kts | 144° |
| 2026-04-25 09:10 | 50.78166 | -1.83046 | 44 ft | 2 kts | 181° |
| 2026-04-25 09:10 | 50.78145 | -1.83051 | 43 ft | 2 kts | 194° |
| 2026-04-25 09:10 | 50.78127 | -1.83074 | 45 ft | 5 kts | 231° |
| 2026-04-25 09:10 | 50.78099 | -1.83141 | 45 ft | 9 kts | 237° |
| 2026-04-25 09:11 | 50.78032 | -1.83332 | 44 ft | 10 kts | 244° |
| 2026-04-25 09:11 | 50.78000 | -1.83426 | 44 ft | 10 kts | 239° |
| 2026-04-25 09:11 | 50.77949 | -1.83486 | 43 ft | 9 kts | 194° |
| 2026-04-25 09:12 | 50.77885 | -1.83481 | 45 ft | 9 kts | 173° |
| 2026-04-25 09:12 | 50.77827 | -1.83468 | 44 ft | 4 kts | 173° |
| 2026-04-25 09:12 | 50.77809 | -1.83459 | 45 ft | 2 kts | 135° |
| 2026-04-25 09:12 | 50.77805 | -1.83440 | 45 ft | 2 kts | 104° |
| 2026-04-25 09:13 | 50.77804 | -1.83420 | 45 ft | 2 kts | 94° |
| 2026-04-25 09:13 | 50.77804 | -1.83400 | 45 ft | 2 kts | 86° |
| 2026-04-25 09:13 | 50.77805 | -1.83382 | 45 ft | 1 kts | 86° |
| 2026-04-25 09:13 | 50.77805 | -1.83376 | 45 ft | 0 kts | 86° |